createdAt,value
2019-01-17T00:03:16.363Z,95958.94
2019-01-17T00:06:56.904Z,95953.30
2019-01-17T00:10:16.419Z,95961.84
2019-01-17T00:13:43.033Z,95950.73
2019-01-17T00:17:08.820Z,95948.48
2019-01-17T00:20:33.615Z,95939.52
2019-01-17T00:23:49.824Z,95934.47
2019-01-17T00:27:14.224Z,95936.91
2019-01-17T00:30:40.402Z,95936.07
2019-01-17T00:33:55.874Z,95936.38
2019-01-17T00:37:14.337Z,95937.15
2019-01-17T00:40:31.741Z,95938.98
2019-01-17T00:43:56.150Z,95934.55
2019-01-17T00:47:28.735Z,95928.10
2019-01-17T00:50:57.588Z,95927.25
2019-01-17T00:54:41.926Z,95930.78
2019-01-17T00:58:22.577Z,95936.19
2019-01-17T01:01:47.524Z,95911.25
2019-01-17T01:05:13.164Z,95913.03
2019-01-17T01:08:39.955Z,95903.00
2019-01-17T01:12:05.316Z,95919.11
2019-01-17T01:15:49.997Z,95917.84
2019-01-17T01:19:11.104Z,95917.39
2019-01-17T01:22:52.384Z,95912.53
2019-01-17T01:26:21.208Z,95916.55
2019-01-17T01:29:53.225Z,95926.89
2019-01-17T01:33:37.059Z,95917.27
2019-01-17T01:37:08.968Z,95918.05
2019-01-17T01:40:29.066Z,95921.74
2019-01-17T01:43:54.865Z,95918.93
2019-01-17T01:47:13.800Z,95925.83
2019-01-17T01:50:42.801Z,95921.70
2019-01-17T01:53:49.676Z,95913.55
2019-01-17T01:56:56.599Z,95919.69
2019-01-17T02:00:03.503Z,95925.97
2019-01-17T02:03:11.511Z,95922.13
2019-01-17T02:06:23.118Z,95936.66
2019-01-17T02:09:30.027Z,95933.89
2019-01-17T02:12:36.998Z,95941.64
2019-01-17T02:15:44.732Z,95929.20
2019-01-17T02:18:51.990Z,95937.78
2019-01-17T02:21:58.953Z,95933.55
2019-01-17T02:25:06.140Z,95920.18
2019-01-17T02:28:13.700Z,95924.56
2019-01-17T02:31:20.851Z,95928.95
2019-01-17T02:34:27.771Z,95906.67
2019-01-17T02:37:34.664Z,95899.75
2019-01-17T02:40:41.586Z,95901.13
2019-01-17T02:43:48.607Z,95905.53
2019-01-17T02:46:55.540Z,95923.27
2019-01-17T02:50:02.423Z,95932.88
2019-01-17T02:53:09.346Z,95938.42
2019-01-17T02:56:16.656Z,95922.05
2019-01-17T02:59:23.681Z,95925.66
2019-01-17T03:02:31.161Z,95924.84
2019-01-17T03:05:39.924Z,95916.08
2019-01-17T03:08:46.816Z,95924.44
2019-01-17T03:11:53.837Z,95930.22
2019-01-17T03:15:00.730Z,95936.83
2019-01-17T03:18:07.642Z,95934.47
2019-01-17T03:21:15.052Z,95937.16
2019-01-17T03:24:21.967Z,95926.59
2019-01-17T03:27:28.852Z,95928.80
2019-01-17T03:30:36.770Z,95929.66
2019-01-17T03:33:43.683Z,95931.46
2019-01-17T03:36:50.586Z,95938.17
2019-01-17T03:39:57.482Z,95920.00
2019-01-17T03:43:04.404Z,95918.84
2019-01-17T03:46:11.345Z,95908.70
2019-01-17T03:49:19.449Z,95907.96
2019-01-17T03:52:26.383Z,95917.06
2019-01-17T03:55:33.412Z,95927.14
2019-01-17T03:58:40.331Z,95918.33
2019-01-17T04:01:47.354Z,95898.27
2019-01-17T04:04:54.253Z,95895.77
2019-01-17T04:08:01.538Z,95890.70
2019-01-17T04:11:08.491Z,95880.51
2019-01-17T04:14:18.099Z,95878.81
2019-01-17T04:17:25.070Z,95877.54
2019-01-17T04:20:32.001Z,95877.59
2019-01-17T04:23:38.884Z,95876.02
2019-01-17T04:26:45.813Z,95878.40
2019-01-17T04:29:52.693Z,95878.50
2019-01-17T04:32:59.616Z,95883.83
2019-01-17T04:36:06.515Z,95878.66
2019-01-17T04:39:13.645Z,95888.05
2019-01-17T04:42:20.521Z,95885.35
2019-01-17T04:45:27.441Z,95884.47
2019-01-17T04:48:34.348Z,95883.37
2019-01-17T04:51:41.331Z,95889.59
2019-01-17T04:54:48.212Z,95893.67
2019-01-17T04:57:55.135Z,95898.36
2019-01-17T05:01:02.153Z,95894.88
2019-01-17T05:04:09.285Z,95901.95
2019-01-17T05:07:24.075Z,95908.12
2019-01-17T05:10:34.247Z,95902.11
2019-01-17T05:13:41.267Z,95913.94
2019-01-17T05:16:48.285Z,95907.23
2019-01-17T05:19:55.168Z,95911.56
2019-01-17T05:23:02.353Z,95911.51
2019-01-17T05:26:09.238Z,95914.09
2019-01-17T05:29:16.331Z,95912.57
2019-01-17T05:32:23.209Z,95919.95
2019-01-17T05:35:30.161Z,95924.64
2019-01-17T05:38:37.118Z,95925.60
2019-01-17T05:41:44.043Z,95926.22
2019-01-17T05:44:51.134Z,95927.76
2019-01-17T05:47:59.667Z,95936.68
2019-01-17T05:51:06.539Z,95928.75
2019-01-17T05:54:16.225Z,95931.77
2019-01-17T05:57:23.204Z,95939.52
2019-01-17T06:00:30.158Z,95934.91
2019-01-17T06:03:37.030Z,95933.73
2019-01-17T06:06:43.966Z,95938.86
2019-01-17T06:09:51.988Z,95935.38
2019-01-17T06:12:59.430Z,95930.64
2019-01-17T06:16:06.684Z,95934.12
2019-01-17T06:19:14.066Z,95936.01
2019-01-17T06:22:20.982Z,95933.09
2019-01-17T06:25:28.413Z,95935.81
2019-01-17T06:28:35.564Z,95931.58
2019-01-17T06:31:42.536Z,95933.94
2019-01-17T06:34:49.500Z,95928.91
2019-01-17T06:37:56.499Z,95924.70
2019-01-17T06:41:03.371Z,95922.48
2019-01-17T06:44:13.654Z,95915.13
2019-01-17T06:47:20.707Z,95920.43
2019-01-17T06:50:27.657Z,95922.77
2019-01-17T06:53:34.559Z,95924.03
2019-01-17T06:56:41.483Z,95917.22
2019-01-17T06:59:48.358Z,95919.85
2019-01-17T07:02:55.314Z,95921.97
2019-01-17T07:06:02.239Z,95917.84
2019-01-17T07:09:10.249Z,95925.73
2019-01-17T07:12:17.343Z,95929.42
2019-01-17T07:15:24.625Z,95930.52
2019-01-17T07:18:31.508Z,95930.52
2019-01-17T07:21:38.468Z,95939.81
2019-01-17T07:24:45.397Z,95942.66
2019-01-17T07:27:52.335Z,95945.19
2019-01-17T07:30:59.337Z,95943.13
2019-01-17T07:34:06.862Z,95943.19
2019-01-17T07:37:13.762Z,95939.33
2019-01-17T07:40:20.680Z,95939.81
2019-01-17T07:43:27.652Z,95941.72
2019-01-17T07:46:34.573Z,95946.09
2019-01-17T07:49:41.441Z,95945.57
2019-01-17T07:52:48.891Z,95949.99
2019-01-17T07:55:55.817Z,95940.98
2019-01-17T07:59:03.217Z,95935.77
2019-01-17T08:02:10.348Z,95943.55
2019-01-17T08:05:17.445Z,95946.64
2019-01-17T08:08:24.499Z,95949.98
2019-01-17T08:11:31.416Z,95950.19
2019-01-17T08:14:38.328Z,95952.04
2019-01-17T08:17:45.757Z,95955.78
2019-01-17T08:20:53.602Z,95954.47
2019-01-17T08:24:00.522Z,95955.73
2019-01-17T08:27:07.684Z,95947.81
2019-01-17T08:30:18.055Z,95957.11
2019-01-17T08:33:25.052Z,95952.04
2019-01-17T08:36:32.015Z,95958.85
2019-01-17T08:39:39.007Z,95958.80
2019-01-17T08:42:46.038Z,95950.72
2019-01-17T08:45:52.925Z,95953.95
2019-01-17T08:48:59.835Z,95963.44
2019-01-17T08:52:09.853Z,95944.86
2019-01-17T08:55:17.070Z,95948.19
2019-01-17T08:58:23.965Z,95949.02
2019-01-17T09:01:30.891Z,95942.23
2019-01-17T09:04:37.766Z,95939.95
2019-01-17T09:07:44.804Z,95944.82
2019-01-17T09:10:51.688Z,95950.75
2019-01-17T09:13:58.620Z,95952.86
2019-01-17T09:17:05.862Z,95951.69
2019-01-17T09:20:14.827Z,95952.48
2019-01-17T09:23:21.719Z,95954.22
2019-01-17T09:26:31.170Z,95952.22
2019-01-17T09:29:38.060Z,95952.95
2019-01-17T09:32:45.037Z,95950.05
2019-01-17T09:35:51.905Z,95947.94
2019-01-17T09:38:58.835Z,95946.67
2019-01-17T09:42:08.139Z,95945.78
2019-01-17T09:45:15.678Z,95939.95
2019-01-17T09:48:22.571Z,95938.17
2019-01-17T09:51:29.538Z,95942.72
2019-01-17T09:54:36.671Z,95939.14
2019-01-17T09:57:44.650Z,95934.58
2019-01-17T10:00:51.540Z,95935.28
2019-01-17T10:03:58.613Z,95926.25
2019-01-17T10:07:06.297Z,95922.91
2019-01-17T10:10:16.271Z,95922.57
2019-01-17T10:13:23.138Z,95924.04
2019-01-17T10:16:45.457Z,95924.69
2019-01-17T10:20:49.151Z,95919.56
2019-01-17T10:24:47.698Z,95922.45
2019-01-17T10:29:05.693Z,95911.88
2019-01-17T10:32:47.462Z,95908.11
2019-01-17T10:36:22.144Z,95893.23
2019-01-17T10:40:49.522Z,95891.11
2019-01-17T10:44:57.187Z,95898.03
2019-01-17T10:49:09.945Z,95894.17
2019-01-17T10:53:13.100Z,95879.17
2019-01-17T10:57:20.058Z,95882.05
2019-01-17T11:01:35.421Z,95878.99
2019-01-17T11:05:32.809Z,95888.05
2019-01-17T11:09:14.359Z,95876.98
2019-01-17T11:13:00.745Z,95869.84
2019-01-17T11:17:22.198Z,95872.19
2019-01-17T11:21:31.484Z,95850.92
2019-01-17T11:25:44.207Z,95837.63
2019-01-17T11:29:44.398Z,95882.28
2019-01-17T11:33:34.538Z,95857.47
2019-01-17T11:37:48.400Z,95862.31
2019-01-17T11:41:42.071Z,95858.56
2019-01-17T11:45:36.736Z,95849.48
2019-01-17T11:49:31.175Z,95843.57
2019-01-17T11:53:41.293Z,95854.42
2019-01-17T11:57:51.431Z,95856.95
2019-01-17T12:01:34.940Z,95850.31
2019-01-17T12:04:42.766Z,95846.20
2019-01-17T12:07:49.740Z,95836.56
2019-01-17T12:10:56.618Z,95837.37
2019-01-17T12:14:03.913Z,95831.02
2019-01-17T12:17:11.162Z,95828.95
2019-01-17T12:20:18.079Z,95827.68
2019-01-17T12:23:26.941Z,95819.12
2019-01-17T12:26:33.985Z,95829.58
2019-01-17T12:29:40.954Z,95830.67
2019-01-17T12:32:47.855Z,95831.22
2019-01-17T12:35:54.742Z,95836.70
2019-01-17T12:39:02.922Z,95831.22
2019-01-17T12:42:09.888Z,95833.27
2019-01-17T12:45:16.812Z,95825.34
2019-01-17T12:48:23.691Z,95824.45
2019-01-17T12:51:30.591Z,95821.02
2019-01-17T12:54:37.474Z,95819.12
2019-01-17T12:57:44.460Z,95811.45
2019-01-17T13:00:51.452Z,95811.56
2019-01-17T13:03:58.375Z,95813.63
2019-01-17T13:07:07.948Z,95816.11
2019-01-17T13:10:16.389Z,95810.30
2019-01-17T13:13:23.732Z,95807.05
2019-01-17T13:16:30.790Z,95804.14
2019-01-17T13:19:37.673Z,95799.91
2019-01-17T13:22:44.629Z,95807.84
2019-01-17T13:25:52.647Z,95794.30
2019-01-17T13:28:59.573Z,95783.96
2019-01-17T13:32:07.976Z,95790.14
2019-01-17T13:35:15.549Z,95800.05
2019-01-17T13:38:22.502Z,95787.17
2019-01-17T13:41:29.432Z,95778.78
2019-01-17T13:44:36.389Z,95775.28
2019-01-17T13:47:43.317Z,95781.13
2019-01-17T13:50:50.312Z,95782.05
2019-01-17T13:53:57.236Z,95789.30
2019-01-17T13:57:07.650Z,95791.58
2019-01-17T14:00:20.156Z,95785.13
2019-01-17T14:03:27.086Z,95785.95
2019-01-17T14:06:34.002Z,95785.97
2019-01-17T14:09:41.069Z,95786.37
2019-01-17T14:12:47.971Z,95779.02
2019-01-17T14:15:54.843Z,95775.43
2019-01-17T14:19:02.147Z,95770.85
2019-01-17T14:22:09.603Z,95773.92
2019-01-17T14:25:16.598Z,95781.44
2019-01-17T14:28:23.790Z,95776.48
2019-01-17T14:31:30.737Z,95779.20
2019-01-17T14:34:37.617Z,95783.08
2019-01-17T14:37:44.547Z,95786.95
2019-01-17T14:40:51.527Z,95786.77
2019-01-17T14:43:58.463Z,95783.45
2019-01-17T14:47:05.798Z,95783.02
2019-01-17T14:50:17.629Z,95788.80
2019-01-17T14:53:24.502Z,95792.50
2019-01-17T14:56:31.495Z,95792.86
2019-01-17T14:59:38.459Z,95791.34
2019-01-17T15:02:45.427Z,95805.25
2019-01-17T15:05:52.403Z,95799.82
2019-01-17T15:08:59.393Z,95796.53
2019-01-17T15:12:06.321Z,95796.86
2019-01-17T15:15:13.337Z,95798.55
2019-01-17T15:18:20.254Z,95803.02
2019-01-17T15:21:27.198Z,95798.38
2019-01-17T15:24:34.102Z,95788.07
2019-01-17T15:27:41.127Z,95789.61
2019-01-17T15:30:48.416Z,95797.00
2019-01-17T15:33:55.347Z,95794.03
2019-01-17T15:37:02.321Z,95790.48
2019-01-17T15:40:14.515Z,95791.92
2019-01-17T15:43:21.547Z,95792.67
2019-01-17T15:46:28.462Z,95797.12
2019-01-17T15:49:35.339Z,95787.86
2019-01-17T15:52:42.637Z,95791.50
2019-01-17T15:55:50.471Z,95789.91
2019-01-17T15:58:57.821Z,95790.95
2019-01-17T16:02:05.167Z,95798.59
2019-01-17T16:05:12.116Z,95789.47
2019-01-17T16:08:19.061Z,95786.61
2019-01-17T16:11:26.031Z,95786.87
2019-01-17T16:14:32.900Z,95785.71
2019-01-17T16:17:39.822Z,95779.22
2019-01-17T16:20:46.695Z,95771.41
2019-01-17T16:23:53.677Z,95770.10
2019-01-17T16:27:01.005Z,95772.27
2019-01-17T16:30:16.633Z,95772.64
2019-01-17T16:33:23.774Z,95777.55
2019-01-17T16:36:31.912Z,95783.12
2019-01-17T16:39:41.162Z,95783.67
2019-01-17T16:42:48.090Z,95787.58
2019-01-17T16:45:55.106Z,95804.83
2019-01-17T16:49:02.292Z,95807.31
2019-01-17T16:52:09.187Z,95807.42
2019-01-17T16:55:16.572Z,95810.95
2019-01-17T16:58:23.447Z,95814.65
2019-01-17T17:01:30.354Z,95822.25
2019-01-17T17:04:37.246Z,95826.33
2019-01-17T17:07:44.175Z,95841.11
2019-01-17T17:10:51.325Z,95829.60
2019-01-17T17:14:00.893Z,95832.13
2019-01-17T17:17:07.861Z,95831.53
2019-01-17T17:20:17.922Z,95829.67
2019-01-17T17:23:24.812Z,95832.28
2019-01-17T17:26:31.719Z,95826.11
2019-01-17T17:29:38.608Z,95848.35
2019-01-17T17:32:45.548Z,95850.22
2019-01-17T17:35:52.832Z,95851.44
2019-01-17T17:39:01.388Z,95844.23
2019-01-17T17:42:09.873Z,95839.86
2019-01-17T17:45:16.782Z,95846.77
2019-01-17T17:48:24.391Z,95841.00
2019-01-17T17:51:31.421Z,95842.61
2019-01-17T17:54:38.323Z,95844.42
2019-01-17T17:57:45.233Z,95847.14
2019-01-17T18:01:06.389Z,95850.24
2019-01-17T18:04:13.293Z,95856.52
2019-01-17T18:07:20.170Z,95862.28
2019-01-17T18:10:27.146Z,95861.38
2019-01-17T18:13:34.038Z,95860.59
2019-01-17T18:16:40.947Z,95864.91
2019-01-17T18:19:47.969Z,95864.53
2019-01-17T18:22:57.308Z,95861.52
2019-01-17T18:26:04.891Z,95862.69
2019-01-17T18:29:12.038Z,95851.20
2019-01-17T18:32:19.007Z,95855.00
2019-01-17T18:35:25.951Z,95855.80
2019-01-17T18:38:33.234Z,95859.59
2019-01-17T18:41:40.284Z,95864.19
2019-01-17T18:44:47.201Z,95880.22
2019-01-17T18:47:54.108Z,95908.03
2019-01-17T18:51:04.130Z,95969.84
2019-01-17T18:54:11.224Z,95996.38
2019-01-17T18:57:19.084Z,95996.93
2019-01-17T19:00:32.251Z,96010.47
2019-01-17T19:03:39.296Z,96019.90
2019-01-17T19:06:46.221Z,96014.58
2019-01-17T19:09:53.295Z,96028.52
2019-01-17T19:13:02.725Z,96042.08
2019-01-17T19:16:09.666Z,96044.66
2019-01-17T19:19:16.707Z,96045.66
2019-01-17T19:22:23.654Z,96048.11
2019-01-17T19:25:30.754Z,96049.31
2019-01-17T19:28:37.667Z,96055.21
2019-01-17T19:31:44.611Z,96064.40
2019-01-17T19:34:51.590Z,96072.84
2019-01-17T19:38:00.289Z,96074.50
2019-01-17T19:41:07.652Z,96083.89
2019-01-17T19:44:14.788Z,96075.95
2019-01-17T19:47:21.727Z,96076.79
2019-01-17T19:50:31.897Z,96082.09
2019-01-17T19:53:38.789Z,96095.43
2019-01-17T19:56:45.713Z,96097.02
2019-01-17T19:59:52.592Z,96113.69
2019-01-17T20:03:02.552Z,96129.27
2019-01-17T20:06:09.540Z,96132.81
2019-01-17T20:09:16.732Z,96142.30
2019-01-17T20:12:23.590Z,96144.19
2019-01-17T20:15:30.700Z,96153.66
2019-01-17T20:18:37.952Z,96153.30
2019-01-17T20:21:45.008Z,96152.95
2019-01-17T20:24:51.925Z,96154.53
2019-01-17T20:27:59.372Z,96160.23
2019-01-17T20:31:06.244Z,96170.03
2019-01-17T20:34:13.244Z,96170.02
2019-01-17T20:37:20.141Z,96170.42
2019-01-17T20:40:27.084Z,96175.30
2019-01-17T20:43:35.548Z,96181.01
2019-01-17T20:46:42.661Z,96179.34
2019-01-17T20:49:49.551Z,96190.29
2019-01-17T20:52:59.459Z,96190.82
2019-01-17T20:56:06.348Z,96196.10
2019-01-17T20:59:13.613Z,96198.54
2019-01-17T21:02:22.031Z,96202.42
2019-01-17T21:05:28.990Z,96203.70
2019-01-17T21:08:37.107Z,96208.74
2019-01-17T21:11:44.102Z,96212.09
2019-01-17T21:14:51.186Z,96218.63
2019-01-17T21:18:01.212Z,96224.74
2019-01-17T21:21:08.108Z,96228.98
2019-01-17T21:24:16.135Z,96223.80
2019-01-17T21:27:23.012Z,96231.22
2019-01-17T21:30:30.032Z,96243.05
2019-01-17T21:33:36.968Z,96240.74
2019-01-17T21:36:43.960Z,96239.52
2019-01-17T21:39:50.832Z,96240.59
2019-01-17T21:42:57.976Z,96238.52
2019-01-17T21:46:05.266Z,96229.34
2019-01-17T21:49:12.224Z,96228.92
2019-01-17T21:52:19.162Z,96239.26
2019-01-17T21:55:27.159Z,96246.64
2019-01-17T21:58:34.121Z,96247.24
2019-01-17T22:01:44.093Z,96246.94
2019-01-17T22:04:51.008Z,96250.67
2019-01-17T22:07:58.210Z,96250.67
2019-01-17T22:11:05.094Z,96265.61
2019-01-17T22:14:13.200Z,96278.16
2019-01-17T22:17:20.102Z,96276.64
2019-01-17T22:20:27.041Z,96274.45
2019-01-17T22:23:33.909Z,96273.33
2019-01-17T22:26:42.995Z,96284.31
2019-01-17T22:29:49.980Z,96286.92
2019-01-17T22:32:56.979Z,96290.22
2019-01-17T22:36:04.013Z,96291.39
2019-01-17T22:39:11.013Z,96310.15
2019-01-17T22:42:18.009Z,96305.78
2019-01-17T22:45:30.804Z,96315.16
2019-01-17T22:48:38.051Z,96323.67
2019-01-17T22:51:44.963Z,96332.22
2019-01-17T22:54:51.833Z,96334.95
2019-01-17T22:57:59.288Z,96340.45
2019-01-17T23:01:22.439Z,96340.98
2019-01-17T23:04:29.352Z,96336.69
2019-01-17T23:07:37.359Z,96347.11
2019-01-17T23:10:44.394Z,96345.28
2019-01-17T23:13:51.354Z,96343.69
2019-01-17T23:16:58.578Z,96348.69
2019-01-17T23:20:06.304Z,96343.31
2019-01-17T23:23:13.251Z,96354.12
2019-01-17T23:26:20.141Z,96348.80
2019-01-17T23:29:27.062Z,96351.16
2019-01-17T23:32:33.928Z,96359.78
2019-01-17T23:35:40.850Z,96367.92
2019-01-17T23:38:47.908Z,96366.22
2019-01-17T23:41:55.160Z,96368.55
2019-01-17T23:45:02.381Z,96374.60
2019-01-17T23:48:09.362Z,96380.92
2019-01-17T23:51:17.410Z,96381.29
2019-01-17T23:54:24.339Z,96386.11
2019-01-17T23:57:31.231Z,96388.06
